Time;durP1;ratioP1;P1;durP2;ratioP2;P2;SDS_P1;SDS_P2;PMS_P1;PMS_P2;Temp;Humidity;BMP_temperature;BMP_pressure;BME280_temperature;BME280_humidity;BME280_pressure;Samples;Min_cycle;Max_cycle;Signal;HPM_P1;HPM_P2
2022/05/01 00:01:04;;;;;;;17.10;12.70;;;;;;;8.54;nan;100031.53;5004452;28;20235;-74
2022/05/01 00:03:33;;;;;;;17.17;14.97;;;;;;;8.63;nan;100034.53;5004565;28;20490;-74
2022/05/01 00:06:01;;;;;;;16.13;14.10;;;;;;;8.69;nan;100027.28;5007211;28;21029;-72
2022/05/01 00:08:27;;;;;;;14.88;12.73;;;;;;;8.75;nan;100020.00;5006979;28;20211;-73
2022/05/01 00:10:54;;;;;;;18.50;14.98;;;;;;;8.75;nan;100021.75;5011041;28;20199;-74
2022/05/01 00:13:21;;;;;;;21.87;16.50;;;;;;;8.72;nan;100014.06;5011246;28;20242;-74
2022/05/01 00:15:46;;;;;;;16.70;12.95;;;;;;;8.69;nan;100003.72;5011513;28;20253;-74
2022/05/01 00:18:12;;;;;;;18.17;13.30;;;;;;;8.66;nan;100011.75;4994231;28;20300;-73
2022/05/01 00:20:37;;;;;;;18.43;13.17;;;;;;;8.62;nan;100018.91;5010609;28;20219;-74
2022/05/01 00:23:02;;;;;;;19.60;15.33;;;;;;;8.57;nan;100015.66;5012104;28;20241;-74
2022/05/01 00:25:28;;;;;;;15.83;13.70;;;;;;;8.51;nan;100016.81;5011387;28;20329;-74
2022/05/01 00:27:55;;;;;;;20.95;13.60;;;;;;;8.47;nan;100011.78;5011699;28;20675;-72
2022/05/01 00:30:21;;;;;;;15.00;11.77;;;;;;;8.39;nan;100010.38;5009196;28;20260;-73
2022/05/01 00:38:15;;;;;;;18.75;14.52;;;;;;;8.34;nan;100022.81;5011483;28;20211;-74
2022/05/01 00:40:40;;;;;;;17.27;13.23;;;;;;;8.32;nan;100024.66;5010303;28;20209;-75
2022/05/01 00:43:06;;;;;;;15.27;12.60;;;;;;;8.28;nan;100027.50;5011202;28;20224;-76
2022/05/01 00:45:32;;;;;;;18.20;13.50;;;;;;;8.22;nan;100014.72;5011898;28;20253;-75
2022/05/01 00:47:57;;;;;;;18.00;13.57;;;;;;;8.14;nan;100026.38;5011640;28;20214;-75
2022/05/01 00:50:23;;;;;;;15.60;13.03;;;;;;;8.00;nan;100018.34;5009628;28;20457;-74
2022/05/01 00:52:50;;;;;;;16.65;13.55;;;;;;;7.90;nan;100023.13;5011430;28;20203;-74
2022/05/01 00:55:15;;;;;;;15.80;12.82;;;;;;;7.82;nan;100019.16;5011547;28;20313;-74
2022/05/01 00:57:42;;;;;;;14.87;12.67;;;;;;;7.82;nan;100021.78;5011294;28;20221;-74
2022/05/01 01:00:08;;;;;;;15.18;12.40;;;;;;;7.83;nan;100016.50;5011091;28;20671;-74
2022/05/01 01:02:33;;;;;;;17.63;12.23;;;;;;;7.89;nan;100020.59;5011449;28;20230;-74
2022/05/01 01:04:59;;;;;;;17.27;14.80;;;;;;;7.93;nan;100022.97;5010270;28;20595;-74
2022/05/01 01:07:27;;;;;;;17.70;12.90;;;;;;;7.95;nan;100015.91;5015223;28;20206;-74
2022/05/01 01:09:53;;;;;;;20.58;13.50;;;;;;;7.92;nan;100020.47;5010680;28;20215;-75
2022/05/01 01:15:09;;;;;;;24.90;19.08;;;;;;;7.80;nan;100021.00;5011741;28;20233;-72
2022/05/01 01:17:40;;;;;;;29.92;20.63;;;;;;;;;;5012190;28;20215;-72
2022/05/01 01:20:13;;;;;;;20.67;14.93;;;;;;;;;;5007584;28;20219;-72
2022/05/01 01:22:39;;;;;;;18.83;14.55;;;;;;;7.70;nan;100012.75;5006987;28;20288;-72
2022/05/01 01:25:07;;;;;;;17.73;14.20;;;;;;;7.63;nan;100014.78;5006896;28;20472;-72
2022/05/01 01:27:32;;;;;;;16.10;12.02;;;;;;;7.58;nan;100015.91;5007965;28;20456;-73
2022/05/01 01:32:43;;;;;;;17.80;15.00;;;;;;;7.49;nan;100009.31;5006770;28;21003;-74
2022/05/01 01:35:10;;;;;;;16.43;13.83;;;;;;;7.42;nan;100010.50;5007218;28;20592;-73
2022/05/01 01:37:35;;;;;;;15.90;11.95;;;;;;;7.32;nan;100013.53;5007936;28;20238;-74
2022/05/01 01:40:01;;;;;;;18.43;13.80;;;;;;;7.26;nan;100011.19;5006474;28;20218;-74
2022/05/01 01:42:29;;;;;;;18.00;12.60;;;;;;;7.27;nan;100015.50;5007419;28;20230;-74
2022/05/01 01:44:56;;;;;;;17.52;12.48;;;;;;;7.29;nan;100010.19;5006936;28;20601;-74
2022/05/01 01:47:21;;;;;;;16.10;12.52;;;;;;;;;;5007448;28;20215;-74
2022/05/01 01:49:47;;;;;;;13.30;11.40;;;;;;;;;;5007246;28;20207;-74
2022/05/01 01:52:12;;;;;;;14.80;11.23;;;;;;;;;;5007461;28;20203;-74
2022/05/01 01:54:38;;;;;;;17.47;12.37;;;;;;;;;;5010460;28;20229;-74
2022/05/01 01:57:04;;;;;;;15.73;12.77;;;;;;;7.22;nan;100014.00;5008341;28;20211;-73
2022/05/01 01:59:29;;;;;;;14.95;10.50;;;;;;;7.13;nan;100015.25;5007202;28;20627;-73
2022/05/01 02:01:54;;;;;;;18.70;13.40;;;;;;;7.06;nan;100014.66;5003489;28;20492;-73
2022/05/01 02:04:20;;;;;;;14.33;12.80;;;;;;;7.00;nan;100008.84;5006396;28;20853;-73
2022/05/01 02:06:45;;;;;;;19.27;14.07;;;;;;;6.93;nan;100005.63;5007584;28;20210;-73
2022/05/01 02:09:12;;;;;;;18.00;12.27;;;;;;;6.86;nan;99992.00;5006148;28;21050;-73
2022/05/01 02:11:38;;;;;;;13.50;11.10;;;;;;;6.89;nan;100008.47;5007878;28;20261;-73
2022/05/01 02:14:05;;;;;;;18.27;12.70;;;;;;;6.87;nan;100000.66;5006604;28;20242;-73
2022/05/01 02:16:31;;;;;;;18.50;12.88;;;;;;;6.81;nan;99999.16;5007530;28;20460;-73
2022/05/01 02:18:57;;;;;;;14.70;11.30;;;;;;;6.75;nan;99996.81;5005970;28;20207;-73
2022/05/01 02:21:35;;;;;;;20.17;12.00;;;;;;;6.64;nan;99988.56;5006388;28;20206;-73
2022/05/01 02:24:04;;;;;;;16.30;13.30;;;;;;;6.55;nan;99992.41;5005018;28;20219;-73
2022/05/01 02:26:29;;;;;;;16.42;12.90;;;;;;;6.52;nan;99994.31;5006778;28;20213;-73
2022/05/01 02:28:55;;;;;;;18.90;13.57;;;;;;;6.53;nan;99993.38;5005889;28;20211;-74
2022/05/01 02:31:22;;;;;;;16.90;10.70;;;;;;;6.51;nan;99987.38;5006520;28;20586;-75
2022/05/01 02:33:47;;;;;;;14.95;12.52;;;;;;;6.52;nan;99983.88;5007587;28;20205;-75
2022/05/01 02:36:14;;;;;;;13.70;11.00;;;;;;;6.57;nan;99985.38;5006561;28;20223;-74
2022/05/01 02:38:40;;;;;;;17.45;10.93;;;;;;;6.63;nan;99984.28;5004627;28;20213;-74
2022/05/01 02:41:06;;;;;;;12.60;9.70;;;;;;;6.68;nan;99982.31;5006938;28;20215;-75
2022/05/01 02:43:31;;;;;;;10.10;9.10;;;;;;;6.60;nan;99980.03;5006894;28;20230;-74
2022/05/01 02:45:57;;;;;;;12.57;9.07;;;;;;;6.52;nan;99989.09;5006713;28;20234;-74
2022/05/01 02:48:22;;;;;;;11.60;9.30;;;;;;;6.40;nan;99987.84;5005987;28;20207;-74
2022/05/01 02:50:47;;;;;;;9.20;7.80;;;;;;;6.25;nan;99984.06;5004453;28;20298;-74
2022/05/01 02:53:13;;;;;;;10.17;8.97;;;;;;;6.15;nan;99996.59;5005805;28;20210;-75
2022/05/01 02:55:38;;;;;;;13.37;8.90;;;;;;;6.00;nan;99989.41;5005636;28;20234;-74
2022/05/01 02:58:06;;;;;;;9.80;8.80;;;;;;;5.93;nan;99987.91;5006415;28;20238;-73
2022/05/01 03:00:33;;;;;;;10.13;9.23;;;;;;;;;;5005492;28;20480;-74
2022/05/01 03:02:59;;;;;;;11.80;9.85;;;;;;;;;;5004883;28;20487;-75
2022/05/01 03:05:24;;;;;;;12.00;8.83;;;;;;;;;;5005733;28;20223;-74
2022/05/01 03:07:50;;;;;;;13.00;8.10;;;;;;;;;;5006527;28;20234;-74
2022/05/01 03:10:15;;;;;;;14.83;9.87;;;;;;;;;;5006456;28;20199;-74
2022/05/01 03:12:40;;;;;;;13.23;10.37;;;;;;;;;;5006094;28;20207;-76
2022/05/01 03:15:06;;;;;;;11.30;8.83;;;;;;;;;;5006288;28;20227;-73
2022/05/01 03:22:10;;;;;;;13.13;9.50;;;;;;;;;;5006466;28;20592;-74
2022/05/01 03:23:01;;;;;;;11.30;8.82;;;;;;;;;;5003815;28;20713;-73
2022/05/01 03:25:26;;;;;;;13.43;9.17;;;;;;;;;;5005356;28;20242;-73
2022/05/01 03:27:53;;;;;;;15.17;9.93;;;;;;;;;;5005997;28;20214;-72
2022/05/01 03:30:19;;;;;;;12.55;9.63;;;;;;;;;;5004670;28;20948;-74
2022/05/01 03:32:45;;;;;;;9.63;8.57;;;;;;;;;;5006353;28;20199;-73
2022/05/01 03:35:10;;;;;;;9.73;8.73;;;;;;;;;;5005150;28;20230;-73
2022/05/01 03:37:36;;;;;;;11.63;8.67;;;;;;;;;;5006738;28;20450;-72
2022/05/01 03:40:01;;;;;;;11.60;8.67;;;;;;;;;;5005042;28;20678;-74
2022/05/01 03:42:27;;;;;;;10.60;9.50;;;;;;;;;;5003978;28;20305;-74
2022/05/01 03:44:52;;;;;;;11.07;9.53;;;;;;;;;;5001908;28;20250;-74
2022/05/01 03:47:18;;;;;;;13.17;10.27;;;;;;;;;;5005853;28;20273;-74
2022/05/01 03:49:43;;;;;;;13.23;9.50;;;;;;;;;;5004872;28;20660;-74
2022/05/01 03:52:08;;;;;;;11.40;10.17;;;;;;;;;;5001178;28;20519;-74
2022/05/01 03:54:33;;;;;;;12.13;8.57;;;;;;;;;;5003172;28;20228;-74
2022/05/01 03:56:59;;;;;;;11.30;8.90;;;;;;;;;;5005859;28;20203;-74
2022/05/01 03:59:24;;;;;;;10.40;7.87;;;;;;;;;;5004281;28;20591;-74
2022/05/01 04:01:49;;;;;;;10.50;9.13;;;;;;;;;;5004589;28;20297;-72
2022/05/01 04:04:15;;;;;;;10.60;8.40;;;;;;;;;;5005295;28;20243;-74
2022/05/01 04:06:40;;;;;;;11.30;9.07;;;;;;;;;;5005196;28;20210;-74
2022/05/01 04:09:05;;;;;;;14.83;9.70;;;;;;;;;;5005479;28;20207;-73
2022/05/01 04:11:30;;;;;;;11.30;9.47;;;;;;;;;;5005749;28;20280;-74
2022/05/01 04:13:56;;;;;;;10.80;8.90;;;;;;;;;;5004549;28;20858;-74
2022/05/01 04:16:21;;;;;;;10.90;8.80;;;;;;;;;;5004736;28;20220;-74
2022/05/01 04:18:47;;;;;;;14.02;9.27;;;;;;;;;;5005162;28;20390;-74
2022/05/01 04:21:13;;;;;;;9.43;8.50;;;;;;;;;;5004600;28;20297;-73
2022/05/01 04:23:39;;;;;;;8.30;7.47;;;;;;;;;;5004900;28;20270;-74
2022/05/01 04:26:04;;;;;;;8.60;7.80;;;;;;;;;;5005925;28;20563;-74
2022/05/01 04:28:29;;;;;;;9.37;7.10;;;;;;;;;;5005003;28;20203;-74
2022/05/01 04:30:55;;;;;;;11.00;8.97;;;;;;;;;;5005291;28;20207;-74
2022/05/01 04:33:21;;;;;;;8.67;7.77;;;;;;;;;;5003409;28;20284;-72
2022/05/01 04:35:50;;;;;;;8.53;7.63;;;;;;;;;;5005007;28;20585;-73
2022/05/01 04:38:20;;;;;;;8.52;7.60;;;;;;;;;;5004307;28;20207;-74
2022/05/01 04:40:55;;;;;;;7.47;6.72;;;;;;;;;;5005946;28;20588;-73
2022/05/01 04:43:23;;;;;;;5.95;5.35;;;;;;;;;;5003971;28;20848;-72
2022/05/01 04:45:49;;;;;;;6.65;5.07;;;;;;;;;;5004889;28;20429;-74
2022/05/01 04:48:15;;;;;;;6.20;5.70;;;;;;;;;;5004041;28;20248;-74
2022/05/01 04:50:40;;;;;;;6.23;5.60;;;;;;;;;;5005019;28;20593;-74
2022/05/01 04:53:07;;;;;;;5.70;5.20;;;;;;;;;;5006037;28;20457;-73
2022/05/01 04:55:32;;;;;;;6.45;5.72;;;;;;;;;;5007832;28;20306;-74
2022/05/01 04:57:59;;;;;;;6.80;5.80;;;;;;;6.04;nan;100000.56;5008196;28;20408;-74
2022/05/01 05:00:25;;;;;;;6.53;5.93;;;;;;;6.38;nan;99994.88;5008227;28;20210;-74
2022/05/01 05:02:52;;;;;;;11.18;8.00;;;;;;;6.82;nan;99993.03;5008699;28;20642;-73
2022/05/01 05:05:19;;;;;;;10.75;7.35;;;;;;;7.32;nan;100002.25;5006367;28;20715;-74
2022/05/01 05:07:46;;;;;;;10.13;7.30;;;;;;;7.72;nan;100008.28;5008799;28;20672;-74
2022/05/01 05:10:13;;;;;;;9.15;8.13;;;;;;;8.09;nan;100002.19;5008261;28;20515;-74
2022/05/01 05:12:42;;;;;;;11.65;8.02;;;;;;;8.40;nan;100006.03;5009206;28;20214;-74
2022/05/01 05:15:09;;;;;;;7.30;6.40;;;;;;;8.66;nan;99993.41;5010314;28;20297;-73
2022/05/01 05:17:36;;;;;;;8.98;7.85;;;;;;;8.84;nan;99990.72;5008512;28;20218;-74
2022/05/01 05:20:04;;;;;;;6.45;5.85;;;;;;;8.97;nan;99992.72;5008011;28;20226;-74
2022/05/01 05:22:30;;;;;;;11.18;6.50;;;;;;;8.88;nan;99995.78;5006901;28;20228;-74
2022/05/01 05:24:55;;;;;;;5.90;5.30;;;;;;;8.92;nan;100002.59;5008218;28;20653;-74
2022/05/01 05:27:25;;;;;;;5.40;5.00;;;;;;;9.06;nan;99997.50;5008131;28;20218;-73
2022/05/01 05:29:52;;;;;;;8.23;5.88;;;;;;;9.37;nan;99999.38;4839025;28;5002496;-73
2022/05/01 05:32:17;;;;;;;15.55;8.90;;;;;;;9.75;nan;99996.50;5007503;28;20238;-74
2022/05/01 05:34:42;;;;;;;9.53;7.33;;;;;;;10.14;nan;99995.25;5008136;28;20727;-74
2022/05/01 05:37:08;;;;;;;7.23;6.43;;;;;;;10.48;nan;99996.00;5007682;28;20739;-77
2022/05/01 05:39:33;;;;;;;7.70;6.83;;;;;;;10.70;nan;100000.88;5007848;28;20244;-74
2022/05/01 05:41:59;;;;;;;11.03;7.40;;;;;;;10.84;nan;99993.88;5007472;28;20207;-74
2022/05/01 05:44:24;;;;;;;10.57;6.83;;;;;;;11.08;nan;99998.63;5007644;28;20633;-74
2022/05/01 05:46:50;;;;;;;8.57;6.90;;;;;;;11.24;nan;99999.41;5008127;28;20223;-73
2022/05/01 05:49:16;;;;;;;8.43;6.87;;;;;;;11.26;nan;99997.53;5007593;28;20264;-74
2022/05/01 05:51:41;;;;;;;9.13;7.10;;;;;;;11.38;nan;100000.34;5006883;28;20234;-74
2022/05/01 05:54:07;;;;;;;10.57;7.37;;;;;;;11.53;nan;100007.31;5007415;28;20207;-73
2022/05/01 05:56:32;;;;;;;8.50;6.93;;;;;;;11.68;nan;100000.25;5007983;28;20238;-74
2022/05/01 05:58:59;;;;;;;9.10;7.90;;;;;;;11.89;nan;100003.38;5007218;28;20205;-74
2022/05/01 06:01:24;;;;;;;7.70;6.88;;;;;;;12.04;nan;100010.28;5006342;28;20546;-74
2022/05/01 06:03:49;;;;;;;9.93;7.00;;;;;;;12.20;nan;100010.16;5006843;28;20230;-73
2022/05/01 06:06:15;;;;;;;9.00;7.10;;;;;;;12.37;nan;100009.94;5007150;28;20603;-73
2022/05/01 06:08:41;;;;;;;9.73;7.30;;;;;;;12.56;nan;100017.47;5007379;28;20250;-72
2022/05/01 06:11:07;;;;;;;7.57;6.88;;;;;;;12.67;nan;100008.88;5006631;28;20253;-72
2022/05/01 06:13:33;;;;;;;8.50;7.63;;;;;;;12.76;nan;100002.16;5007630;28;20731;-73
2022/05/01 06:15:58;;;;;;;6.73;6.07;;;;;;;12.88;nan;100011.00;5006930;28;20277;-73
2022/05/01 06:18:24;;;;;;;8.37;7.00;;;;;;;13.11;nan;100007.69;5005431;28;20618;-73
2022/05/01 06:20:50;;;;;;;10.33;7.27;;;;;;;13.21;nan;100003.47;5006204;28;20202;-72
2022/05/01 06:23:16;;;;;;;8.45;6.90;;;;;;;13.34;nan;100005.28;5006974;28;20685;-73
2022/05/01 06:25:43;;;;;;;8.10;7.13;;;;;;;13.32;nan;100004.56;5006662;28;20526;-73
2022/05/01 06:28:12;;;;;;;10.02;8.15;;;;;;;13.27;nan;100002.25;5006592;28;20828;-73
2022/05/01 06:30:40;;;;;;;10.10;7.68;;;;;;;13.38;nan;99993.59;5005599;28;20199;-72
2022/05/01 06:33:08;;;;;;;9.57;8.63;;;;;;;13.59;nan;99997.38;5006339;28;20463;-73
2022/05/01 06:35:33;;;;;;;8.43;7.13;;;;;;;13.84;nan;99991.22;5006677;28;20384;-73
2022/05/01 06:37:59;;;;;;;9.57;7.80;;;;;;;14.16;nan;99998.63;5007061;28;20672;-73
2022/05/01 06:40:24;;;;;;;9.00;7.50;;;;;;;14.48;nan;99996.28;5004499;28;20855;-73
2022/05/01 06:42:50;;;;;;;9.40;8.50;;;;;;;14.68;nan;99989.53;5005378;28;20280;-73
2022/05/01 06:45:15;;;;;;;11.57;9.77;;;;;;;14.76;nan;99992.44;5006828;28;20230;-74
2022/05/01 06:47:40;;;;;;;8.13;7.40;;;;;;;14.90;nan;99987.94;5007171;28;20250;-73
2022/05/01 06:50:06;;;;;;;12.57;9.60;;;;;;;14.95;nan;99993.72;5005184;28;20210;-73
2022/05/01 06:52:32;;;;;;;11.93;8.77;;;;;;;15.06;nan;99991.09;5005176;28;20231;-73
2022/05/01 06:54:59;;;;;;;9.97;8.90;;;;;;;15.20;nan;99992.69;5006618;28;20238;-74
2022/05/01 06:57:25;;;;;;;10.18;9.10;;;;;;;15.30;nan;99984.88;5006886;28;20203;-74
2022/05/01 06:59:51;;;;;;;8.75;7.82;;;;;;;15.37;nan;99980.81;5005231;28;20322;-72
2022/05/01 07:02:16;;;;;;;10.70;8.60;;;;;;;15.53;nan;99986.59;5005703;28;20218;-73
2022/05/01 07:04:42;;;;;;;10.50;9.33;;;;;;;15.65;nan;99984.78;5006370;28;20821;-74
2022/05/01 07:07:07;;;;;;;9.97;8.60;;;;;;;15.70;nan;99986.13;5005738;28;20210;-73
2022/05/01 07:09:33;;;;;;;10.33;9.33;;;;;;;15.66;nan;99983.81;5007046;28;20257;-72
2022/05/01 07:11:58;;;;;;;10.40;8.77;;;;;;;15.67;nan;99982.88;5005571;28;20585;-74
2022/05/01 07:14:24;;;;;;;9.30;8.30;;;;;;;15.82;nan;99981.66;5004055;28;20250;-72
2022/05/01 07:16:50;;;;;;;9.87;8.77;;;;;;;15.96;nan;99985.88;5006039;28;20225;-73
2022/05/01 07:19:15;;;;;;;12.80;8.70;;;;;;;16.00;nan;99982.00;5016172;28;20207;-74
2022/05/01 07:21:41;;;;;;;11.90;9.90;;;;;;;15.86;nan;99977.81;4993166;28;20498;-74
2022/05/01 07:24:07;;;;;;;10.50;9.47;;;;;;;16.03;nan;99975.63;5005904;28;20291;-73
2022/05/01 07:26:35;;;;;;;12.33;11.10;;;;;;;16.22;nan;99981.09;5006558;28;20209;-74
2022/05/01 07:29:02;;;;;;;13.30;10.15;;;;;;;16.54;nan;99978.47;5006474;28;20200;-73
2022/05/01 07:31:28;;;;;;;11.55;10.35;;;;;;;16.73;nan;99974.28;5005340;28;20235;-74
2022/05/01 07:33:54;;;;;;;12.13;10.25;;;;;;;16.97;nan;99960.81;5005047;28;20654;-74
2022/05/01 07:36:19;;;;;;;12.90;10.40;;;;;;;16.87;nan;99962.56;5005607;28;20221;-72
2022/05/01 07:38:51;;;;;;;13.23;10.17;;;;;;;16.30;nan;99962.78;5005287;28;20223;-73
2022/05/01 07:41:17;;;;;;;15.20;13.70;;;;;;;16.04;nan;99956.97;5005797;28;20258;-74
2022/05/01 07:43:44;;;;;;;12.77;9.98;;;;;;;16.44;nan;99951.03;4969145;28;20283;-74
2022/05/01 07:46:09;;;;;;;12.95;9.85;;;;;;;17.01;nan;99944.50;4985572;28;20439;-74
2022/05/01 07:48:35;;;;;;;12.40;11.03;;;;;;;17.32;nan;99947.19;4985947;28;20212;-72
2022/05/01 07:51:01;;;;;;;17.35;11.32;;;;;;;17.57;nan;99947.69;4986657;28;20217;-73
2022/05/01 07:53:26;;;;;;;16.90;10.97;;;;;;;17.68;nan;99947.59;4983664;28;20199;-73
2022/05/01 07:55:51;;;;;;;14.60;10.90;;;;;;;17.67;nan;99943.28;4976391;28;20243;-73
2022/05/01 07:58:19;;;;;;;14.00;11.33;;;;;;;17.31;nan;99948.16;4966120;28;20631;-73
2022/05/01 08:00:45;;;;;;;15.05;11.75;;;;;;;16.83;nan;99945.22;4966520;28;20762;-74
2022/05/01 08:05:54;;;;;;;15.20;11.82;;;;;;;15.99;nan;99950.34;4965626;28;20241;-74
2022/05/01 08:08:19;;;;;;;14.30;11.50;;;;;;;15.75;nan;99956.66;4965942;28;20238;-72
2022/05/01 08:10:45;;;;;;;15.97;13.27;;;;;;;15.60;nan;99960.47;4967227;28;20207;-74
2022/05/01 08:13:10;;;;;;;17.30;11.87;;;;;;;15.44;nan;99963.47;4965489;28;20568;-74
2022/05/01 08:15:44;;;;;;;12.50;11.07;;;;;;;15.23;nan;99956.25;4968252;28;20704;-74
2022/05/01 08:21:07;;;;;;;16.65;12.20;;;;;;;14.93;nan;99964.75;4941689;28;20657;-74
2022/05/01 08:23:37;;;;;;;14.98;12.40;;;;;;;15.27;nan;99957.69;4950157;28;20232;-74
2022/05/01 08:26:06;;;;;;;20.83;14.85;;;;;;;15.84;nan;99949.75;4957347;28;20603;-74
2022/05/01 08:28:36;;;;;;;16.83;13.82;;;;;;;16.14;nan;99957.03;4925939;29;20205;-78
2022/05/01 08:31:02;;;;;;;16.23;13.27;;;;;;;16.15;nan;99958.75;4934849;29;20209;-78
2022/05/01 08:33:27;;;;;;;16.70;12.87;;;;;;;16.02;nan;99969.47;4936102;29;20204;-77
2022/05/01 08:35:53;;;;;;;16.07;12.77;;;;;;;15.80;nan;99958.94;4935718;29;20230;-78
2022/05/01 08:38:20;;;;;;;14.45;12.48;;;;;;;15.69;nan;99963.28;4934920;29;20233;-78
2022/05/01 08:40:48;;;;;;;16.67;13.23;;;;;;;15.60;nan;99958.66;4935255;29;20210;-78
2022/05/01 08:43:21;;;;;;;18.98;13.55;;;;;;;15.53;nan;99953.97;4931911;29;20304;-78
2022/05/01 08:45:53;;;;;;;17.15;12.90;;;;;;;15.93;nan;99955.19;4934243;29;20209;-79
2022/05/01 08:48:25;;;;;;;18.25;13.60;;;;;;;16.26;nan;99947.25;4933859;29;20293;-78
2022/05/01 08:50:52;;;;;;;19.92;13.63;;;;;;;16.14;nan;99949.09;4934680;29;20293;-79
2022/05/01 08:53:18;;;;;;;16.50;13.15;;;;;;;15.82;nan;99946.38;4934582;29;20210;-78
2022/05/01 08:55:45;;;;;;;17.20;13.60;;;;;;;15.69;nan;99947.38;4941113;29;20210;-78
2022/05/01 08:58:11;;;;;;;18.58;13.20;;;;;;;15.95;nan;99947.09;4934556;29;20203;-78
2022/05/01 09:00:37;;;;;;;19.52;14.32;;;;;;;16.03;nan;99949.97;4933995;29;20206;-79
2022/05/01 09:03:04;;;;;;;19.83;16.35;;;;;;;16.00;nan;99947.56;4932753;29;20511;-78
2022/05/01 09:05:31;;;;;;;18.00;15.50;;;;;;;15.75;nan;99945.22;4934481;29;20245;-78
2022/05/01 09:07:57;;;;;;;20.40;13.15;;;;;;;15.62;nan;99951.44;4934994;29;20734;-78
2022/05/01 09:10:26;;;;;;;14.40;11.07;;;;;;;15.98;nan;99943.34;4934532;28;20260;-78
2022/05/01 09:12:53;;;;;;;20.60;15.02;;;;;;;16.48;nan;99943.69;4934604;29;20211;-81
2022/05/01 09:15:36;;;;;;;14.80;11.75;;;;;;;16.50;nan;99953.19;4934248;29;20259;-80
2022/05/01 09:18:08;;;;;;;15.25;12.23;;;;;;;16.12;nan;99949.22;4933466;29;20238;-79
2022/05/01 09:20:36;;;;;;;18.63;11.45;;;;;;;16.07;nan;99946.09;4933537;28;20745;-79
2022/05/01 09:23:02;;;;;;;16.13;12.07;;;;;;;16.45;nan;99947.44;4934154;29;20226;-78
2022/05/01 09:25:29;;;;;;;16.30;12.10;;;;;;;16.76;nan;99940.38;4936556;29;20241;-78
2022/05/01 09:27:59;;;;;;;19.80;13.27;;;;;;;16.91;nan;99942.78;4934230;28;20481;-78
2022/05/01 09:30:38;;;;;;;20.95;11.90;;;;;;;16.93;nan;99938.16;4934007;29;20223;-78
2022/05/01 09:33:04;;;;;;;20.02;12.85;;;;;;;16.83;nan;99932.81;4935004;29;20207;-78
2022/05/01 09:35:35;;;;;;;14.57;10.63;;;;;;;16.91;nan;99932.16;4934392;29;20243;-78
2022/05/01 09:38:17;;;;;;;14.80;12.00;;;;;;;17.23;nan;99934.72;4935840;29;20221;-78
2022/05/01 09:40:47;;;;;;;16.40;13.40;;;;;;;17.44;nan;99926.69;4935798;29;20220;-79
2022/05/01 09:43:35;;;;;;;15.93;12.07;;;;;;;17.71;nan;99926.06;4934474;29;20513;-79
2022/05/01 09:46:20;;;;;;;15.27;11.63;;;;;;;17.78;nan;99921.91;4934410;29;20236;-76
2022/05/01 09:49:02;;;;;;;14.83;11.53;;;;;;;17.84;nan;99923.19;4937078;29;20298;-77
2022/05/01 09:51:30;;;;;;;16.07;13.30;;;;;;;17.81;nan;99924.31;4935201;29;20514;-77
2022/05/01 09:53:56;;;;;;;16.37;11.53;;;;;;;17.96;nan;99913.28;4934196;28;20491;-77
2022/05/01 09:56:22;;;;;;;12.47;10.60;;;;;;;18.06;nan;99922.94;4933679;29;20485;-78
2022/05/01 09:59:00;;;;;;;18.57;12.90;;;;;;;18.14;nan;99919.59;4922424;29;20996;-77
2022/05/01 10:01:26;;;;;;;19.07;12.30;;;;;;;18.36;nan;99910.50;4931058;29;20201;-79
2022/05/01 10:03:52;;;;;;;16.20;12.27;;;;;;;18.44;nan;99912.47;4930847;29;20492;-80
2022/05/01 10:06:19;;;;;;;17.47;11.87;;;;;;;18.32;nan;99903.81;4931485;29;20567;-80
2022/05/01 10:08:45;;;;;;;12.37;11.07;;;;;;;18.28;nan;99910.38;4932604;29;20859;-79
2022/05/01 10:11:16;;;;;;;14.40;11.77;;;;;;;18.23;nan;99908.16;4932014;29;20464;-77
2022/05/01 10:13:44;;;;;;;12.53;9.87;;;;;;;18.27;nan;99908.72;4930337;28;20807;-78
2022/05/01 10:16:11;;;;;;;18.37;12.30;;;;;;;18.30;nan;99908.44;4930092;29;20531;-77
2022/05/01 10:18:38;;;;;;;15.60;11.10;;;;;;;18.24;nan;99911.66;4931268;28;20965;-79
2022/05/01 10:21:05;;;;;;;13.07;10.47;;;;;;;18.26;nan;99905.22;4932646;29;20931;-77
2022/05/01 10:23:32;;;;;;;14.67;10.27;;;;;;;18.33;nan;99902.81;4931879;29;20940;-77
2022/05/01 10:26:20;;;;;;;16.70;10.47;;;;;;;18.41;nan;99905.63;4935481;29;20485;-77
2022/05/01 10:29:18;;;;;;;13.73;9.80;;;;;;;18.52;nan;99896.66;4929548;29;20461;-77
2022/05/01 10:32:21;;;;;;;15.97;10.03;;;;;;;18.64;nan;99895.53;4931508;28;20461;-78
2022/05/01 10:34:49;;;;;;;13.10;10.63;;;;;;;18.68;nan;99891.59;4931245;29;20809;-78
2022/05/01 10:37:40;;;;;;;11.10;9.10;;;;;;;18.60;nan;99888.81;4931565;29;20536;-78
2022/05/01 10:40:06;;;;;;;15.87;9.87;;;;;;;18.61;nan;99890.50;4931617;29;20483;-79
2022/05/01 10:42:39;;;;;;;10.00;8.30;;;;;;;18.60;nan;99887.97;4931770;29;20461;-78
2022/05/01 10:45:23;;;;;;;13.03;9.20;;;;;;;18.67;nan;99887.25;4930454;29;20435;-79
2022/05/01 10:47:53;;;;;;;11.20;9.77;;;;;;;18.65;nan;99875.91;4931980;29;20484;-78
2022/05/01 10:50:27;;;;;;;13.67;10.50;;;;;;;18.61;nan;99879.84;4931052;28;20952;-78
2022/05/01 10:53:12;;;;;;;13.60;10.60;;;;;;;18.43;nan;99870.91;4930980;28;20472;-79
2022/05/01 10:55:43;;;;;;;12.37;10.50;;;;;;;18.31;nan;99868.41;4929200;29;20977;-78
2022/05/01 10:58:22;;;;;;;17.43;10.30;;;;;;;18.41;nan;99863.06;4930056;29;20509;-79
2022/05/01 11:00:49;;;;;;;14.57;10.33;;;;;;;18.49;nan;99867.69;4931314;29;20891;-78
2022/05/01 11:03:27;;;;;;;12.93;8.60;;;;;;;18.28;nan;99862.50;4930597;28;20845;-78
2022/05/01 11:06:01;;;;;;;14.50;10.87;;;;;;;18.01;nan;99863.22;4929826;28;20891;-78
2022/05/01 11:08:31;;;;;;;13.00;10.60;;;;;;;17.96;nan;99865.44;4929381;29;20460;-77
2022/05/01 11:10:59;;;;;;;16.43;10.53;;;;;;;18.00;nan;99858.88;4931709;29;21111;-79
2022/05/01 11:13:39;;;;;;;14.57;10.87;;;;;;;18.00;nan;99858.88;4930883;29;20453;-78
2022/05/01 11:16:07;;;;;;;13.50;11.20;;;;;;;17.88;nan;99853.72;4929195;29;20543;-78
2022/05/01 11:18:52;;;;;;;15.20;10.63;;;;;;;17.73;nan;99863.00;4930311;29;20508;-77
2022/05/01 11:21:24;;;;;;;14.50;11.70;;;;;;;17.57;nan;99852.91;4930578;29;20465;-79
2022/05/01 11:24:00;;;;;;;13.93;10.07;;;;;;;17.53;nan;99853.34;4932611;29;20587;-77
2022/05/01 11:26:26;;;;;;;14.30;11.47;;;;;;;17.60;nan;99851.81;4931529;29;20472;-77
2022/05/01 11:29:13;;;;;;;16.03;11.13;;;;;;;17.66;nan;99845.94;4932285;29;20473;-79
2022/05/01 11:31:42;;;;;;;17.40;12.33;;;;;;;17.77;nan;99852.94;4934271;29;20460;-78
2022/05/01 11:34:17;;;;;;;15.97;12.20;;;;;;;17.75;nan;99845.13;4942893;29;20468;-77
2022/05/01 11:36:57;;;;;;;15.37;10.60;;;;;;;17.73;nan;99840.94;4946711;29;20515;-78
2022/05/01 11:40:20;;;;;;;13.97;10.43;;;;;;;17.75;nan;99838.97;4948388;29;20466;-79
2022/05/01 11:42:46;;;;;;;12.43;9.77;;;;;;;17.73;nan;99841.75;4864916;29;20464;-77
2022/05/01 11:45:12;;;;;;;12.27;10.20;;;;;;;17.75;nan;99837.16;4866237;29;20761;-77
2022/05/01 11:47:38;;;;;;;13.53;10.20;;;;;;;17.74;nan;99838.16;4907176;29;21264;-78
2022/05/01 11:50:05;;;;;;;11.07;9.40;;;;;;;17.69;nan;99840.38;4937714;29;20232;-77
2022/05/01 11:52:36;;;;;;;12.47;9.70;;;;;;;17.66;nan;99833.50;4941309;29;20473;-77
2022/05/01 11:55:07;;;;;;;13.13;9.97;;;;;;;17.55;nan;99823.03;4947337;29;20488;-77
2022/05/01 12:03:08;;;;;;;14.43;9.60;;;;;;;17.21;nan;99811.88;4971454;28;20502;-77
2022/05/01 12:05:45;;;;;;;12.03;8.77;;;;;;;17.28;nan;99799.72;4939214;29;21007;-78
2022/05/01 12:08:12;;;;;;;13.53;8.30;;;;;;;17.37;nan;99801.59;4932898;29;20484;-79
2022/05/01 12:10:41;;;;;;;9.33;8.33;;;;;;;17.44;nan;99800.06;4930838;29;20469;-79
2022/05/01 12:13:27;;;;;;;10.57;8.60;;;;;;;17.52;nan;99795.88;4931495;29;20468;-78
2022/05/01 12:15:53;;;;;;;11.80;9.07;;;;;;;17.64;nan;99792.13;4933545;29;20480;-78
2022/05/01 12:18:20;;;;;;;9.33;8.00;;;;;;;17.72;nan;99794.09;4931905;29;20885;-79
2022/05/01 12:20:46;;;;;;;10.43;7.60;;;;;;;17.76;nan;99788.34;4932772;29;20209;-78
2022/05/01 12:23:22;;;;;;;9.77;8.40;;;;;;;17.75;nan;99792.00;4932273;29;20547;-77
2022/05/01 12:25:50;;;;;;;12.40;9.63;;;;;;;17.77;nan;99790.03;4927538;28;20508;-78
2022/05/01 12:28:18;;;;;;;11.87;9.00;;;;;;;17.71;nan;99790.56;4951721;28;20464;-77
2022/05/01 12:30:49;;;;;;;12.70;9.00;;;;;;;17.73;nan;99782.47;4952106;28;20523;-77
2022/05/01 12:33:24;;;;;;;11.00;8.57;;;;;;;17.74;nan;99790.31;4951086;28;21082;-80